Terminal Aerodrome Forecast
Issued by NWS

Home | Current Version | Previous Version | Text Only | Print | Product List | Glossary On
Versions: 1 2 3 4 5 6 7 8 9 10 11 12 13 14 15 16 17 18 19 20 21 22 23 24
000
FTUS41 KPBZ 220600 AAA
TAFFKL
TAF AMD
KFKL 220653Z 2207/2306 VRB04KT 4SM BR OVC004
      TEMPO 2207/2210 -SHRA SCT004 OVC010
     FM221400 21008KT 6SM -RA BKN025
     FM230000 VRB04KT P6SM BKN040
      AMD LTD TO CLD VIS AND WIND=

USA.gov is the U.S. government's official web portal to all federal, state and local government web resources and services.